Ksl Sapporo — VRNH7 — position and weather

sailwx.info

Track history (hours):
 
Tides and Currents Weather Stations Pressure Air Temp Water Temp Dewpoint Dewpoint Depression Visibility Wind Speed Wind Dir Waves Ship Positions

Ksl Sapporo

Last reported at 2017-Nov-18 06:29 UTC. Time now 2017-Nov-19 15:51 UTC.
Position N 35°32' E 031°52'.

Length 292 m; draft 17.5 m.

Type: Cargo ship. MMSI: 477271100.

Date/timePositionNaut miles runAvg speedWind from/ knotsBaromVisibWave heightAir tempDewpointWater temp
2017-Nov-18 06:29N 35°32' E 031°52'710.9
2017-Nov-18 05:50N 35°30' E 031°43'511.1
2017-Nov-18 05:24N 35°29' E 031°37'811.0
2017-Nov-18 04:40N 35°27' E 031°28'211.1
2017-Nov-18 04:30N 35°27' E 031°26'611.2
2017-Nov-18 03:58N 35°26' E 031°18'511.1
2017-Nov-18 03:30N 35°25' E 031°12'611.0
2017-Nov-18 03:00N 35°23' E 031°06'611.1
2017-Nov-18 02:30N 35°22' E 030°59'510.9
2017-Nov-18 02:00N 35°21' E 030°53'1110.7
2017-Nov-18 00:59N 35°19' E 030°40'  
2017-Nov-15 00:04N 36°12' E 014°52'111.3
2017-Nov-14 23:58N 36°12' E 014°51'511.3
2017-Nov-14 23:29N 36°14' E 014°44'511.1
2017-Nov-14 23:00N 36°15' E 014°38'611.1
2017-Nov-14 22:30N 36°17' E 014°31'611.1
2017-Nov-14 22:00N 36°19' E 014°25'511.0
2017-Nov-14 21:30N 36°21' E 014°18'611.0
2017-Nov-14 21:00N 36°23' E 014°12'611.1
2017-Nov-14 20:30N 36°25' E 014°06'610.9
2017-Nov-14 19:59N 36°26' E 013°59'510.8
2017-Nov-14 19:30N 36°28' E 013°52'510.7
2017-Nov-14 19:00N 36°29' E 013°46'510.9
2017-Nov-14 18:30N 36°32' E 013°40'  
2017-Nov-11 17:40N 36°00' W 005°07'315.6
2017-Nov-11 17:30N 35°60' W 005°10'714.8
2017-Nov-11 17:00N 35°59' W 005°19'713.2
2017-Nov-11 16:30N 35°58' W 005°27'25811.9
2017-Nov-10 18:55N 33°03' W 009°18'13310.6
2017-Nov-10 06:25N 31°22' W 010°60'4710.2
2017-Nov-10 01:46N 30°43' W 011°30'10 9.9
2017-Nov-10 00:45N 30°34' W 011°37'77 9.9
2017-Nov-09 16:57N 29°30' W 012°26'510.7
2017-Nov-09 16:29N 29°26' W 012°29'510.8
2017-Nov-09 16:00N 29°21' W 012°33'2010.8
2017-Nov-09 14:09N 29°05' W 012°46'1211.2
2017-Nov-09 13:06N 28°55' W 012°53'1511.3
2017-Nov-09 11:45N 28°42' W 013°03'311.8
2017-Nov-09 11:30N 28°40' W 013°05'611.7
2017-Nov-09 11:00N 28°35' W 013°08'611.7
2017-Nov-09 10:28N 28°30' W 013°12'511.7
2017-Nov-09 10:00N 28°25' W 013°16'612.1
2017-Nov-09 09:29N 28°20' W 013°20'612.4
2017-Nov-09 09:00N 28°15' W 013°23'612.5
2017-Nov-09 08:30N 28°10' W 013°27'612.4
2017-Nov-09 08:00N 28°05' W 013°31'612.2
2017-Nov-09 07:30N 27°60' W 013°35'612.5
2017-Nov-09 07:00N 27°55' W 013°40'612.7
2017-Nov-09 06:30N 27°51' W 013°45'712.6
2017-Nov-09 05:59N 27°46' W 013°51'612.7
2017-Nov-09 05:29N 27°42' W 013°56'612.6
2017-Nov-09 04:59N 27°38' W 014°01'612.5
2017-Nov-09 04:30N 27°33' W 014°06'712.3
2017-Nov-09 03:56N 27°28' W 014°11'512.3
2017-Nov-09 03:29N 27°25' W 014°16'612.4
2017-Nov-09 02:59N 27°20' W 014°21'  
Track history (hours):
 
Tides and Currents Weather Stations Pressure Air Temp Water Temp Dewpoint Dewpoint Depression Visibility Wind Speed Wind Dir Waves Ship Positions

Ksl Sapporo

Last reported at 2017-Nov-18 06:29 UTC. Time now 2017-Nov-19 15:51 UTC.
Position N 35°32' E 031°52'.

Length 292 m; draft 17.5 m.

Type: Cargo ship. MMSI: 477271100.

Date/timePositionNaut miles runAvg speedWind from/ knotsBaromVisibWave heightAir tempDewpointWater temp
2017-Nov-18 06:29N 35°32' E 031°52'710.9
2017-Nov-18 05:50N 35°30' E 031°43'511.1
2017-Nov-18 05:24N 35°29' E 031°37'811.0
2017-Nov-18 04:40N 35°27' E 031°28'211.1
2017-Nov-18 04:30N 35°27' E 031°26'611.2
2017-Nov-18 03:58N 35°26' E 031°18'511.1
2017-Nov-18 03:30N 35°25' E 031°12'611.0
2017-Nov-18 03:00N 35°23' E 031°06'611.1
2017-Nov-18 02:30N 35°22' E 030°59'510.9
2017-Nov-18 02:00N 35°21' E 030°53'1110.7
2017-Nov-18 00:59N 35°19' E 030°40'  
2017-Nov-15 00:04N 36°12' E 014°52'111.3
2017-Nov-14 23:58N 36°12' E 014°51'511.3
2017-Nov-14 23:29N 36°14' E 014°44'511.1
2017-Nov-14 23:00N 36°15' E 014°38'611.1
2017-Nov-14 22:30N 36°17' E 014°31'611.1
2017-Nov-14 22:00N 36°19' E 014°25'511.0
2017-Nov-14 21:30N 36°21' E 014°18'611.0
2017-Nov-14 21:00N 36°23' E 014°12'611.1
2017-Nov-14 20:30N 36°25' E 014°06'610.9
2017-Nov-14 19:59N 36°26' E 013°59'510.8
2017-Nov-14 19:30N 36°28' E 013°52'510.7
2017-Nov-14 19:00N 36°29' E 013°46'510.9
2017-Nov-14 18:30N 36°32' E 013°40'  
2017-Nov-11 17:40N 36°00' W 005°07'315.6
2017-Nov-11 17:30N 35°60' W 005°10'714.8
2017-Nov-11 17:00N 35°59' W 005°19'713.2
2017-Nov-11 16:30N 35°58' W 005°27'25811.9
2017-Nov-10 18:55N 33°03' W 009°18'13310.6
2017-Nov-10 06:25N 31°22' W 010°60'4710.2
2017-Nov-10 01:46N 30°43' W 011°30'10 9.9
2017-Nov-10 00:45N 30°34' W 011°37'77 9.9
2017-Nov-09 16:57N 29°30' W 012°26'510.7
2017-Nov-09 16:29N 29°26' W 012°29'510.8
2017-Nov-09 16:00N 29°21' W 012°33'2010.8
2017-Nov-09 14:09N 29°05' W 012°46'1211.2
2017-Nov-09 13:06N 28°55' W 012°53'1511.3
2017-Nov-09 11:45N 28°42' W 013°03'311.8
2017-Nov-09 11:30N 28°40' W 013°05'611.7
2017-Nov-09 11:00N 28°35' W 013°08'611.7
2017-Nov-09 10:28N 28°30' W 013°12'511.7
2017-Nov-09 10:00N 28°25' W 013°16'612.1
2017-Nov-09 09:29N 28°20' W 013°20'612.4
2017-Nov-09 09:00N 28°15' W 013°23'612.5
2017-Nov-09 08:30N 28°10' W 013°27'612.4
2017-Nov-09 08:00N 28°05' W 013°31'612.2
2017-Nov-09 07:30N 27°60' W 013°35'612.5
2017-Nov-09 07:00N 27°55' W 013°40'612.7
2017-Nov-09 06:30N 27°51' W 013°45'712.6
2017-Nov-09 05:59N 27°46' W 013°51'612.7
2017-Nov-09 05:29N 27°42' W 013°56'612.6
2017-Nov-09 04:59N 27°38' W 014°01'612.5
2017-Nov-09 04:30N 27°33' W 014°06'712.3
2017-Nov-09 03:56N 27°28' W 014°11'512.3
2017-Nov-09 03:29N 27°25' W 014°16'612.4
2017-Nov-09 02:59N 27°20' W 014°21'  

Dump ship's entire track history